KCCR

Buchanan Field Airport

Concord, California, USA

KCCR 110853Z AUTO 00000KT 10SM CLR 04/02 A3028 RMK AO2 SLP238 T00390017 51006

Observed Flight Rules
Dec-11 @ 08:53 UTC (42 minutes ago) Visual Flight Rules
Wind Visibility Clouds
Calm 10 miles
  • Clear skies
Temperatures Readings
Current 4°C / 39°F
Dewpoint 2°C / 36°F
Humidity 87%
Altimeter 30.28" Hg
Pressure 1023.8 hPa
Elevation 11
Observed Flight Rules
Dec-11 @ 08:53 UTC
(42 minutes ago)
VFR
Wind Visibility
Calm 10 miles
Clouds
  • Clear skies
Temperature Dewpoint
4°C / 39°F 2°C / 36°F
Humidity Altimeter Pressure
87% 30.28" Hg 1023.8 hPa